sensor_id;sensor_type;location;lat;lon;timestamp;pressure;altitude;pressure_sealevel;temperature;humidity
58471;BME280;44258;51.288;12.068;2022-08-23T00:00:36;100603.69;;;18.76;55.33
58471;BME280;44258;51.288;12.068;2022-08-23T00:03:02;100601.69;;;18.78;55.00
58471;BME280;44258;51.288;12.068;2022-08-23T00:05:29;100593.75;;;18.74;54.92
58471;BME280;44258;51.288;12.068;2022-08-23T00:07:55;100594.28;;;18.68;54.93
58471;BME280;44258;51.288;12.068;2022-08-23T00:10:22;100588.09;;;18.45;55.88
58471;BME280;44258;51.288;12.068;2022-08-23T00:12:50;100597.66;;;18.40;55.93
58471;BME280;44258;51.288;12.068;2022-08-23T00:15:19;100587.50;;;18.42;55.38
58471;BME280;44258;51.288;12.068;2022-08-23T00:17:46;100591.97;;;18.43;55.10
58471;BME280;44258;51.288;12.068;2022-08-23T00:20:16;100585.28;;;18.36;55.20
58471;BME280;44258;51.288;12.068;2022-08-23T00:22:43;100585.59;;;18.21;56.23
58471;BME280;44258;51.288;12.068;2022-08-23T00:25:11;100588.88;;;18.04;56.92
58471;BME280;44258;51.288;12.068;2022-08-23T00:27:38;100585.41;;;18.02;56.57
58471;BME280;44258;51.288;12.068;2022-08-23T00:30:08;100587.13;;;18.03;56.60
58471;BME280;44258;51.288;12.068;2022-08-23T00:32:37;100586.41;;;18.12;56.35
58471;BME280;44258;51.288;12.068;2022-08-23T00:35:05;100586.63;;;18.20;55.91
58471;BME280;44258;51.288;12.068;2022-08-23T00:37:32;100582.16;;;18.19;56.01
58471;BME280;44258;51.288;12.068;2022-08-23T00:39:59;100582.94;;;18.10;56.27
58471;BME280;44258;51.288;12.068;2022-08-23T00:42:30;100594.53;;;18.01;56.75
58471;BME280;44258;51.288;12.068;2022-08-23T00:45:19;100584.56;;;17.90;56.73
58471;BME280;44258;51.288;12.068;2022-08-23T00:48:06;100580.50;;;17.84;56.85
58471;BME280;44258;51.288;12.068;2022-08-23T00:50:35;100581.97;;;17.77;57.05
58471;BME280;44258;51.288;12.068;2022-08-23T00:53:06;100585.59;;;17.78;56.88
58471;BME280;44258;51.288;12.068;2022-08-23T00:55:37;100587.81;;;17.72;57.24
58471;BME280;44258;51.288;12.068;2022-08-23T00:58:04;100590.41;;;17.63;57.57
58471;BME280;44258;51.288;12.068;2022-08-23T01:00:33;100583.41;;;17.49;58.22
58471;BME280;44258;51.288;12.068;2022-08-23T01:03:00;100578.81;;;17.49;57.83
58471;BME280;44258;51.288;12.068;2022-08-23T01:05:45;100591.31;;;17.41;58.84
58471;BME280;44258;51.288;12.068;2022-08-23T01:08:12;100587.47;;;17.43;58.60
58471;BME280;44258;51.288;12.068;2022-08-23T01:10:44;100581.91;;;17.45;58.60
58471;BME280;44258;51.288;12.068;2022-08-23T01:13:14;100582.66;;;17.47;58.59
58471;BME280;44258;51.288;12.068;2022-08-23T01:15:46;100587.94;;;17.48;58.35
58471;BME280;44258;51.288;12.068;2022-08-23T01:18:16;100590.81;;;17.47;58.29
58471;BME280;44258;51.288;12.068;2022-08-23T01:20:48;100596.50;;;17.44;58.19
58471;BME280;44258;51.288;12.068;2022-08-23T01:23:25;100596.75;;;17.41;58.46
58471;BME280;44258;51.288;12.068;2022-08-23T01:25:53;100596.59;;;17.42;58.38
58471;BME280;44258;51.288;12.068;2022-08-23T01:28:20;100601.69;;;17.36;58.42
58471;BME280;44258;51.288;12.068;2022-08-23T01:30:47;100591.56;;;17.26;58.73
58471;BME280;44258;51.288;12.068;2022-08-23T01:33:14;100596.56;;;17.20;58.49
58471;BME280;44258;51.288;12.068;2022-08-23T01:35:42;100584.97;;;17.06;58.82
58471;BME280;44258;51.288;12.068;2022-08-23T01:38:11;100593.38;;;17.14;58.73
58471;BME280;44258;51.288;12.068;2022-08-23T01:40:39;100594.84;;;17.07;58.90
58471;BME280;44258;51.288;12.068;2022-08-23T01:43:07;100588.16;;;17.00;58.90
58471;BME280;44258;51.288;12.068;2022-08-23T01:45:34;100599.25;;;16.97;59.13
58471;BME280;44258;51.288;12.068;2022-08-23T01:48:02;100598.53;;;16.95;59.15
58471;BME280;44258;51.288;12.068;2022-08-23T01:50:29;100601.97;;;16.97;59.03
58471;BME280;44258;51.288;12.068;2022-08-23T01:52:55;100603.47;;;16.90;58.97
58471;BME280;44258;51.288;12.068;2022-08-23T01:55:22;100608.38;;;16.85;59.39
58471;BME280;44258;51.288;12.068;2022-08-23T01:57:52;100610.19;;;16.73;59.77
58471;BME280;44258;51.288;12.068;2022-08-23T02:00:22;100609.69;;;16.68;59.81
58471;BME280;44258;51.288;12.068;2022-08-23T02:02:49;100608.38;;;16.73;59.55
58471;BME280;44258;51.288;12.068;2022-08-23T02:05:16;100606.41;;;16.87;58.86
58471;BME280;44258;51.288;12.068;2022-08-23T02:07:43;100606.41;;;16.87;59.17
58471;BME280;44258;51.288;12.068;2022-08-23T02:10:10;100608.47;;;16.72;59.85
58471;BME280;44258;51.288;12.068;2022-08-23T02:12:37;100608.22;;;16.64;60.26
58471;BME280;44258;51.288;12.068;2022-08-23T02:15:06;100602.25;;;16.59;60.31
58471;BME280;44258;51.288;12.068;2022-08-23T02:17:32;100610.19;;;16.62;60.21
58471;BME280;44258;51.288;12.068;2022-08-23T02:19:59;100608.44;;;16.61;60.23
58471;BME280;44258;51.288;12.068;2022-08-23T02:22:27;100605.84;;;16.59;60.30
58471;BME280;44258;51.288;12.068;2022-08-23T02:24:54;100604.38;;;16.66;60.04
58471;BME280;44258;51.288;12.068;2022-08-23T02:27:20;100606.72;;;16.71;59.80
58471;BME280;44258;51.288;12.068;2022-08-23T02:29:47;100601.56;;;16.68;59.87
58471;BME280;44258;51.288;12.068;2022-08-23T02:32:17;100601.72;;;16.78;59.57
58471;BME280;44258;51.288;12.068;2022-08-23T02:34:44;100609.00;;;16.88;59.20
58471;BME280;44258;51.288;12.068;2022-08-23T02:37:12;100604.19;;;16.81;59.43
58471;BME280;44258;51.288;12.068;2022-08-23T02:39:40;100605.28;;;16.78;59.42
58471;BME280;44258;51.288;12.068;2022-08-23T02:42:07;100606.25;;;16.77;59.29
58471;BME280;44258;51.288;12.068;2022-08-23T02:44:34;100605.88;;;16.70;59.29
58471;BME280;44258;51.288;12.068;2022-08-23T02:47:02;100612.25;;;16.58;59.45
58471;BME280;44258;51.288;12.068;2022-08-23T02:49:30;100603.72;;;16.51;59.65
58471;BME280;44258;51.288;12.068;2022-08-23T02:51:56;100607.41;;;16.50;59.66
58471;BME280;44258;51.288;12.068;2022-08-23T02:54:23;100603.56;;;16.42;59.87
58471;BME280;44258;51.288;12.068;2022-08-23T02:56:49;100612.91;;;16.38;59.82
58471;BME280;44258;51.288;12.068;2022-08-23T02:59:17;100607.84;;;16.33;59.79
58471;BME280;44258;51.288;12.068;2022-08-23T03:01:44;100607.53;;;16.25;59.95
58471;BME280;44258;51.288;12.068;2022-08-23T03:04:10;100604.41;;;16.18;60.04
58471;BME280;44258;51.288;12.068;2022-08-23T03:06:38;100606.25;;;15.93;60.42
58471;BME280;44258;51.288;12.068;2022-08-23T03:09:05;100607.44;;;15.89;60.23
58471;BME280;44258;51.288;12.068;2022-08-23T03:11:32;100611.22;;;16.00;59.97
58471;BME280;44258;51.288;12.068;2022-08-23T03:13:59;100599.59;;;15.98;60.19
58471;BME280;44258;51.288;12.068;2022-08-23T03:16:26;100606.13;;;15.95;60.51
58471;BME280;44258;51.288;12.068;2022-08-23T03:18:53;100605.47;;;16.04;59.75
58471;BME280;44258;51.288;12.068;2022-08-23T03:21:20;100602.28;;;16.10;58.98
58471;BME280;44258;51.288;12.068;2022-08-23T03:23:48;100614.34;;;16.06;59.15
58471;BME280;44258;51.288;12.068;2022-08-23T03:26:15;100616.63;;;16.00;59.04
58471;BME280;44258;51.288;12.068;2022-08-23T03:28:43;100615.88;;;15.98;59.34
58471;BME280;44258;51.288;12.068;2022-08-23T03:31:11;100612.56;;;15.94;58.97
58471;BME280;44258;51.288;12.068;2022-08-23T03:33:38;100610.16;;;15.89;59.12
58471;BME280;44258;51.288;12.068;2022-08-23T03:36:06;100614.94;;;15.86;59.10
58471;BME280;44258;51.288;12.068;2022-08-23T03:38:34;100618.09;;;15.80;59.00
58471;BME280;44258;51.288;12.068;2022-08-23T03:41:02;100624.72;;;15.75;58.96
58471;BME280;44258;51.288;12.068;2022-08-23T03:43:28;100623.78;;;15.77;59.15
58471;BME280;44258;51.288;12.068;2022-08-23T03:45:55;100620.97;;;15.65;59.36
58471;BME280;44258;51.288;12.068;2022-08-23T03:48:22;100627.50;;;15.50;59.87
58471;BME280;44258;51.288;12.068;2022-08-23T03:50:49;100631.72;;;15.54;60.03
58471;BME280;44258;51.288;12.068;2022-08-23T03:53:16;100621.66;;;15.56;60.03
58471;BME280;44258;51.288;12.068;2022-08-23T03:55:43;100626.63;;;15.62;59.95
58471;BME280;44258;51.288;12.068;2022-08-23T03:58:11;100637.06;;;15.56;60.18
58471;BME280;44258;51.288;12.068;2022-08-23T04:00:37;100637.06;;;15.56;60.18
58471;BME280;44258;51.288;12.068;2022-08-23T04:03:04;100635.84;;;15.47;60.52
58471;BME280;44258;51.288;12.068;2022-08-23T04:05:30;100634.66;;;15.51;60.41
58471;BME280;44258;51.288;12.068;2022-08-23T04:07:57;100640.06;;;15.64;59.76
58471;BME280;44258;51.288;12.068;2022-08-23T04:10:23;100640.28;;;15.61;60.22
58471;BME280;44258;51.288;12.068;2022-08-23T04:12:50;100640.53;;;15.58;60.15
58471;BME280;44258;51.288;12.068;2022-08-23T04:15:20;100637.34;;;15.51;60.31
58471;BME280;44258;51.288;12.068;2022-08-23T04:17:47;100645.63;;;15.49;60.17
58471;BME280;44258;51.288;12.068;2022-08-23T04:20:14;100649.09;;;15.39;60.41
58471;BME280;44258;51.288;12.068;2022-08-23T04:22:41;100647.03;;;15.42;60.33
58471;BME280;44258;51.288;12.068;2022-08-23T04:25:08;100650.28;;;15.47;60.23
58471;BME280;44258;51.288;12.068;2022-08-23T04:27:34;100651.25;;;15.46;60.24
58471;BME280;44258;51.288;12.068;2022-08-23T04:30:01;100646.38;;;15.51;60.03
58471;BME280;44258;51.288;12.068;2022-08-23T04:32:29;100641.28;;;15.47;60.07
58471;BME280;44258;51.288;12.068;2022-08-23T04:34:55;100644.13;;;15.45;60.16
58471;BME280;44258;51.288;12.068;2022-08-23T04:37:22;100647.03;;;15.42;60.29
58471;BME280;44258;51.288;12.068;2022-08-23T04:39:51;100644.31;;;15.42;60.35
58471;BME280;44258;51.288;12.068;2022-08-23T04:42:36;100648.47;;;15.35;60.72
58471;BME280;44258;51.288;12.068;2022-08-23T04:45:02;100648.22;;;15.38;60.53
58471;BME280;44258;51.288;12.068;2022-08-23T04:47:30;100644.41;;;15.41;60.60
58471;BME280;44258;51.288;12.068;2022-08-23T04:49:57;100653.09;;;15.46;60.36
58471;BME280;44258;51.288;12.068;2022-08-23T04:52:23;100645.19;;;15.56;60.19
58471;BME280;44258;51.288;12.068;2022-08-23T04:54:49;100650.59;;;15.56;60.24
58471;BME280;44258;51.288;12.068;2022-08-23T04:57:16;100656.19;;;15.65;60.09
58471;BME280;44258;51.288;12.068;2022-08-23T04:59:43;100650.03;;;15.76;59.89
58471;BME280;44258;51.288;12.068;2022-08-23T05:02:09;100647.09;;;15.66;61.28
58471;BME280;44258;51.288;12.068;2022-08-23T05:04:37;100655.25;;;15.66;61.58
58471;BME280;44258;51.288;12.068;2022-08-23T05:07:03;100655.75;;;15.71;61.58
58471;BME280;44258;51.288;12.068;2022-08-23T05:09:30;100656.66;;;15.72;61.80
58471;BME280;44258;51.288;12.068;2022-08-23T05:11:56;100667.16;;;15.77;61.76
58471;BME280;44258;51.288;12.068;2022-08-23T05:14:23;100658.66;;;15.81;61.62
58471;BME280;44258;51.288;12.068;2022-08-23T05:16:49;100659.44;;;15.83;61.75
58471;BME280;44258;51.288;12.068;2022-08-23T05:19:16;100657.56;;;15.84;61.72
58471;BME280;44258;51.288;12.068;2022-08-23T05:21:44;100660.41;;;15.82;61.90
58471;BME280;44258;51.288;12.068;2022-08-23T05:24:10;100664.84;;;15.83;61.72
58471;BME280;44258;51.288;12.068;2022-08-23T05:26:37;100671.00;;;15.98;61.28
58471;BME280;44258;51.288;12.068;2022-08-23T05:29:03;100676.16;;;16.14;60.96
58471;BME280;44258;51.288;12.068;2022-08-23T05:31:30;100682.28;;;16.05;61.23
58471;BME280;44258;51.288;12.068;2022-08-23T05:33:56;100685.28;;;16.13;60.91
58471;BME280;44258;51.288;12.068;2022-08-23T05:36:23;100682.22;;;16.18;61.04
58471;BME280;44258;51.288;12.068;2022-08-23T05:38:51;100683.63;;;16.23;60.94
58471;BME280;44258;51.288;12.068;2022-08-23T05:41:19;100688.91;;;16.38;60.73
58471;BME280;44258;51.288;12.068;2022-08-23T05:43:46;100693.16;;;16.53;60.53
58471;BME280;44258;51.288;12.068;2022-08-23T05:46:15;100685.56;;;16.58;60.46
58471;BME280;44258;51.288;12.068;2022-08-23T05:48:44;100686.38;;;16.71;60.32
58471;BME280;44258;51.288;12.068;2022-08-23T05:51:13;100693.56;;;16.84;60.13
58471;BME280;44258;51.288;12.068;2022-08-23T05:53:41;100691.75;;;16.95;60.06
58471;BME280;44258;51.288;12.068;2022-08-23T05:56:11;100694.13;;;17.11;59.72
58471;BME280;44258;51.288;12.068;2022-08-23T05:58:38;100682.13;;;17.27;59.60
58471;BME280;44258;51.288;12.068;2022-08-23T06:01:05;100684.22;;;17.34;59.24
58471;BME280;44258;51.288;12.068;2022-08-23T06:03:32;100685.84;;;17.37;59.63
58471;BME280;44258;51.288;12.068;2022-08-23T06:05:59;100691.53;;;17.45;59.63
58471;BME280;44258;51.288;12.068;2022-08-23T06:08:26;100701.91;;;17.63;59.56
58471;BME280;44258;51.288;12.068;2022-08-23T06:10:59;100700.81;;;17.65;59.88
58471;BME280;44258;51.288;12.068;2022-08-23T06:13:26;100689.56;;;17.70;59.83
58471;BME280;44258;51.288;12.068;2022-08-23T06:15:53;100695.50;;;17.98;59.28
58471;BME280;44258;51.288;12.068;2022-08-23T06:18:19;100695.09;;;18.25;59.36
58471;BME280;44258;51.288;12.068;2022-08-23T06:20:46;100696.50;;;18.51;58.84
58471;BME280;44258;51.288;12.068;2022-08-23T06:23:12;100702.38;;;18.79;58.31
58471;BME280;44258;51.288;12.068;2022-08-23T06:25:39;100698.88;;;19.09;58.06
58471;BME280;44258;51.288;12.068;2022-08-23T06:28:05;100699.81;;;19.41;57.38
58471;BME280;44258;51.288;12.068;2022-08-23T06:30:33;100700.25;;;19.67;57.08
58471;BME280;44258;51.288;12.068;2022-08-23T06:33:00;100702.41;;;19.73;56.68
58471;BME280;44258;51.288;12.068;2022-08-23T06:35:26;100700.25;;;19.67;55.82
58471;BME280;44258;51.288;12.068;2022-08-23T06:37:53;100706.41;;;19.90;55.87
58471;BME280;44258;51.288;12.068;2022-08-23T06:40:20;100700.63;;;20.24;55.61
58471;BME280;44258;51.288;12.068;2022-08-23T06:42:46;100704.00;;;20.57;55.28
58471;BME280;44258;51.288;12.068;2022-08-23T06:45:12;100710.91;;;20.80;54.71
58471;BME280;44258;51.288;12.068;2022-08-23T06:47:40;100708.06;;;21.01;54.46
58471;BME280;44258;51.288;12.068;2022-08-23T06:50:08;100717.50;;;21.26;53.26
58471;BME280;44258;51.288;12.068;2022-08-23T06:52:34;100714.09;;;21.34;52.71
58471;BME280;44258;51.288;12.068;2022-08-23T06:55:01;100715.06;;;21.33;51.99
58471;BME280;44258;51.288;12.068;2022-08-23T06:57:27;100718.69;;;21.33;52.23
58471;BME280;44258;51.288;12.068;2022-08-23T06:59:54;100710.63;;;21.32;52.20
58471;BME280;44258;51.288;12.068;2022-08-23T07:02:20;100716.53;;;21.18;52.25
58471;BME280;44258;51.288;12.068;2022-08-23T07:04:48;100714.66;;;21.18;52.17
58471;BME280;44258;51.288;12.068;2022-08-23T07:07:18;100723.72;;;21.19;52.54
58471;BME280;44258;51.288;12.068;2022-08-23T07:09:44;100719.00;;;21.01;52.49
58471;BME280;44258;51.288;12.068;2022-08-23T07:12:11;100721.16;;;20.98;52.78
58471;BME280;44258;51.288;12.068;2022-08-23T07:14:37;100723.28;;;21.13;52.60
58471;BME280;44258;51.288;12.068;2022-08-23T07:17:06;100730.47;;;21.24;53.07
58471;BME280;44258;51.288;12.068;2022-08-23T07:19:35;100722.13;;;21.06;52.49
58471;BME280;44258;51.288;12.068;2022-08-23T07:22:04;100724.44;;;21.21;52.01
58471;BME280;44258;51.288;12.068;2022-08-23T07:24:31;100728.88;;;21.41;51.32
58471;BME280;44258;51.288;12.068;2022-08-23T07:26:57;100728.63;;;21.35;51.59
58471;BME280;44258;51.288;12.068;2022-08-23T07:29:25;100730.78;;;21.31;51.35
58471;BME280;44258;51.288;12.068;2022-08-23T07:31:54;100735.09;;;20.75;52.49
58471;BME280;44258;51.288;12.068;2022-08-23T07:34:21;100727.91;;;21.03;52.37
58471;BME280;44258;51.288;12.068;2022-08-23T07:36:50;100733.78;;;21.08;52.50
58471;BME280;44258;51.288;12.068;2022-08-23T07:39:19;100735.38;;;21.40;51.48
58471;BME280;44258;51.288;12.068;2022-08-23T07:41:46;100740.28;;;21.27;51.98
58471;BME280;44258;51.288;12.068;2022-08-23T07:44:13;100730.06;;;20.90;51.96
58471;BME280;44258;51.288;12.068;2022-08-23T07:46:42;100733.06;;;21.16;51.55
58471;BME280;44258;51.288;12.068;2022-08-23T07:49:12;100733.38;;;20.84;51.69
58471;BME280;44258;51.288;12.068;2022-08-23T07:51:39;100741.28;;;20.87;52.01
58471;BME280;44258;51.288;12.068;2022-08-23T07:54:08;100739.72;;;21.13;51.70
58471;BME280;44258;51.288;12.068;2022-08-23T07:56:37;100747.47;;;20.99;51.54
58471;BME280;44258;51.288;12.068;2022-08-23T07:59:05;100746.88;;;20.76;51.70
58471;BME280;44258;51.288;12.068;2022-08-23T08:01:31;100748.34;;;20.89;51.60
58471;BME280;44258;51.288;12.068;2022-08-23T08:03:59;100741.44;;;20.95;51.74
58471;BME280;44258;51.288;12.068;2022-08-23T08:06:28;100748.91;;;20.93;52.10
58471;BME280;44258;51.288;12.068;2022-08-23T08:08:55;100753.38;;;21.33;51.10
58471;BME280;44258;51.288;12.068;2022-08-23T08:11:24;100752.31;;;21.53;51.27
58471;BME280;44258;51.288;12.068;2022-08-23T08:13:53;100757.66;;;21.65;50.46
58471;BME280;44258;51.288;12.068;2022-08-23T08:16:23;100759.53;;;21.64;50.28
58471;BME280;44258;51.288;12.068;2022-08-23T08:18:51;100763.16;;;21.45;50.52
58471;BME280;44258;51.288;12.068;2022-08-23T08:21:18;100754.34;;;21.51;50.18
58471;BME280;44258;51.288;12.068;2022-08-23T08:23:45;100757.94;;;21.62;50.16
58471;BME280;44258;51.288;12.068;2022-08-23T08:26:12;100753.69;;;21.87;50.01
58471;BME280;44258;51.288;12.068;2022-08-23T08:28:38;100759.63;;;21.82;49.87
58471;BME280;44258;51.288;12.068;2022-08-23T08:31:07;100756.81;;;21.55;49.41
58471;BME280;44258;51.288;12.068;2022-08-23T08:33:34;100756.53;;;21.19;50.86
58471;BME280;44258;51.288;12.068;2022-08-23T08:36:02;100754.66;;;21.58;50.20
58471;BME280;44258;51.288;12.068;2022-08-23T08:38:29;100757.41;;;21.96;49.69
58471;BME280;44258;51.288;12.068;2022-08-23T08:41:00;100757.97;;;22.09;48.92
58471;BME280;44258;51.288;12.068;2022-08-23T08:43:35;100761.47;;;22.01;48.33
58471;BME280;44258;51.288;12.068;2022-08-23T08:46:09;100757.16;;;21.89;48.22
58471;BME280;44258;51.288;12.068;2022-08-23T08:48:41;100758.69;;;21.44;49.28
58471;BME280;44258;51.288;12.068;2022-08-23T08:51:19;100757.53;;;21.94;49.12
58471;BME280;44258;51.288;12.068;2022-08-23T08:53:48;100750.66;;;22.00;49.14
58471;BME280;44258;51.288;12.068;2022-08-23T08:56:19;100756.50;;;22.42;48.71
58471;BME280;44258;51.288;12.068;2022-08-23T08:58:49;100755.41;;;22.53;47.59
58471;BME280;44258;51.288;12.068;2022-08-23T09:01:20;100749.53;;;22.20;47.65
58471;BME280;44258;51.288;12.068;2022-08-23T09:03:48;100751.56;;;22.18;48.22
58471;BME280;44258;51.288;12.068;2022-08-23T09:06:19;100760.72;;;22.09;47.50
58471;BME280;44258;51.288;12.068;2022-08-23T09:08:59;100761.13;;;22.04;47.63
58471;BME280;44258;51.288;12.068;2022-08-23T09:11:39;100765.94;;;22.58;47.07
58471;BME280;44258;51.288;12.068;2022-08-23T09:17:08;100758.56;;;22.30;47.34
58471;BME280;44258;51.288;12.068;2022-08-23T09:19:38;100765.75;;;22.87;46.73
58471;BME280;44258;51.288;12.068;2022-08-23T09:22:12;100754.84;;;23.13;45.83
58471;BME280;44258;51.288;12.068;2022-08-23T09:24:39;100757.13;;;23.00;45.55
58471;BME280;44258;51.288;12.068;2022-08-23T09:27:07;100757.69;;;23.21;44.78
58471;BME280;44258;51.288;12.068;2022-08-23T09:29:36;100757.69;;;23.65;44.04
58471;BME280;44258;51.288;12.068;2022-08-23T09:32:25;100759.94;;;23.44;42.79
58471;BME280;44258;51.288;12.068;2022-08-23T09:35:04;100748.97;;;23.26;43.40
58471;BME280;44258;51.288;12.068;2022-08-23T09:37:46;100755.25;;;23.88;43.05
58471;BME280;44258;51.288;12.068;2022-08-23T09:40:17;100744.47;;;23.95;42.90
58471;BME280;44258;51.288;12.068;2022-08-23T09:42:44;100747.59;;;23.66;43.00
58471;BME280;44258;51.288;12.068;2022-08-23T09:45:24;100743.69;;;23.77;43.30
58471;BME280;44258;51.288;12.068;2022-08-23T09:47:52;100744.31;;;24.23;43.12
58471;BME280;44258;51.288;12.068;2022-08-23T09:50:25;100746.56;;;24.27;41.81
58471;BME280;44258;51.288;12.068;2022-08-23T09:52:58;100741.69;;;23.87;41.47
58471;BME280;44258;51.288;12.068;2022-08-23T09:55:29;100740.00;;;24.28;40.87
58471;BME280;44258;51.288;12.068;2022-08-23T09:58:01;100733.22;;;24.06;42.22
58471;BME280;44258;51.288;12.068;2022-08-23T10:00:31;100732.59;;;24.13;42.00
58471;BME280;44258;51.288;12.068;2022-08-23T10:03:25;100731.16;;;22.30;45.25
58471;BME280;44258;51.288;12.068;2022-08-23T10:05:54;100737.13;;;22.71;44.89
58471;BME280;44258;51.288;12.068;2022-08-23T10:08:24;100737.13;;;23.43;43.47
58471;BME280;44258;51.288;12.068;2022-08-23T10:10:54;100731.50;;;22.91;43.90
58471;BME280;44258;51.288;12.068;2022-08-23T10:13:23;100717.56;;;23.72;43.07
58471;BME280;44258;51.288;12.068;2022-08-23T10:15:55;100719.38;;;24.24;42.86
58471;BME280;44258;51.288;12.068;2022-08-23T10:18:41;100725.56;;;23.58;43.49
58471;BME280;44258;51.288;12.068;2022-08-23T10:21:17;100720.50;;;24.05;42.91
58471;BME280;44258;51.288;12.068;2022-08-23T10:24:01;100715.44;;;23.58;43.73
58471;BME280;44258;51.288;12.068;2022-08-23T10:26:35;100726.94;;;24.22;42.28
58471;BME280;44258;51.288;12.068;2022-08-23T10:29:11;100716.16;;;24.29;41.93
58471;BME280;44258;51.288;12.068;2022-08-23T10:32:05;100717.47;;;24.08;42.91
58471;BME280;44258;51.288;12.068;2022-08-23T10:34:51;100716.72;;;23.46;43.59
58471;BME280;44258;51.288;12.068;2022-08-23T10:37:25;100712.69;;;23.58;43.53
58471;BME280;44258;51.288;12.068;2022-08-23T10:39:58;100708.66;;;24.47;42.37
58471;BME280;44258;51.288;12.068;2022-08-23T10:42:34;100717.69;;;24.82;41.19
58471;BME280;44258;51.288;12.068;2022-08-23T10:45:11;100705.84;;;24.23;41.47
58471;BME280;44258;51.288;12.068;2022-08-23T10:47:50;100696.97;;;23.42;42.77
58471;BME280;44258;51.288;12.068;2022-08-23T10:50:26;100708.22;;;24.77;41.70
58471;BME280;44258;51.288;12.068;2022-08-23T10:52:57;100708.41;;;25.00;41.31
58471;BME280;44258;51.288;12.068;2022-08-23T10:55:32;100710.28;;;24.75;39.96
58471;BME280;44258;51.288;12.068;2022-08-23T10:58:14;100698.50;;;24.48;40.09
58471;BME280;44258;51.288;12.068;2022-08-23T11:00:45;100699.09;;;23.83;40.72
58471;BME280;44258;51.288;12.068;2022-08-23T11:03:20;100699.38;;;24.48;41.18
58471;BME280;44258;51.288;12.068;2022-08-23T11:06:23;100694.09;;;24.63;39.80
58471;BME280;44258;51.288;12.068;2022-08-23T11:08:58;100698.25;;;24.84;39.49
58471;BME280;44258;51.288;12.068;2022-08-23T11:11:38;100698.53;;;24.64;39.31
58471;BME280;44258;51.288;12.068;2022-08-23T11:14:07;100694.13;;;25.04;39.33
58471;BME280;44258;51.288;12.068;2022-08-23T11:16:35;100695.66;;;25.56;38.99
58471;BME280;44258;51.288;12.068;2022-08-23T11:19:10;100701.03;;;24.25;40.40
58471;BME280;44258;51.288;12.068;2022-08-23T11:21:46;100696.97;;;24.03;40.91
58471;BME280;44258;51.288;12.068;2022-08-23T11:24:32;100698.91;;;24.10;40.37
58471;BME280;44258;51.288;12.068;2022-08-23T11:27:24;100702.19;;;24.22;40.09
58471;BME280;44258;51.288;12.068;2022-08-23T11:29:54;100700.50;;;23.87;40.95
58471;BME280;44258;51.288;12.068;2022-08-23T11:32:28;100700.56;;;23.69;41.31
58471;BME280;44258;51.288;12.068;2022-08-23T11:35:04;100698.56;;;24.14;40.37
58471;BME280;44258;51.288;12.068;2022-08-23T11:37:56;100707.06;;;23.94;41.30
58471;BME280;44258;51.288;12.068;2022-08-23T11:40:40;100703.47;;;24.02;40.45
58471;BME280;44258;51.288;12.068;2022-08-23T11:43:10;100697.19;;;23.49;41.25
58471;BME280;44258;51.288;12.068;2022-08-23T11:45:43;100698.16;;;23.22;42.52
58471;BME280;44258;51.288;12.068;2022-08-23T11:48:16;100695.41;;;23.66;41.18
58471;BME280;44258;51.288;12.068;2022-08-23T11:51:12;100691.25;;;24.39;40.58
58471;BME280;44258;51.288;12.068;2022-08-23T11:54:07;100688.63;;;24.96;38.71
58471;BME280;44258;51.288;12.068;2022-08-23T11:56:51;100687.59;;;25.38;38.59
58471;BME280;44258;51.288;12.068;2022-08-23T11:59:30;100692.19;;;25.62;38.16
58471;BME280;44258;51.288;12.068;2022-08-23T12:02:32;100694.31;;;24.86;38.32
58471;BME280;44258;51.288;12.068;2022-08-23T12:05:04;100696.00;;;24.79;38.84
58471;BME280;44258;51.288;12.068;2022-08-23T12:07:44;100693.63;;;25.09;38.66
58471;BME280;44258;51.288;12.068;2022-08-23T12:10:14;100692.94;;;24.90;39.52
58471;BME280;44258;51.288;12.068;2022-08-23T12:12:42;100695.44;;;24.51;40.31
58471;BME280;44258;51.288;12.068;2022-08-23T12:15:11;100695.50;;;24.76;40.10
58471;BME280;44258;51.288;12.068;2022-08-23T12:18:12;100692.31;;;24.38;40.27
58471;BME280;44258;51.288;12.068;2022-08-23T12:20:39;100686.06;;;24.95;40.10
58471;BME280;44258;51.288;12.068;2022-08-23T12:23:18;100689.50;;;24.88;39.46
58471;BME280;44258;51.288;12.068;2022-08-23T12:25:57;100690.19;;;24.90;39.50
58471;BME280;44258;51.288;12.068;2022-08-23T12:28:36;100685.69;;;24.73;39.88
58471;BME280;44258;51.288;12.068;2022-08-23T12:31:14;100692.25;;;24.21;40.47
58471;BME280;44258;51.288;12.068;2022-08-23T12:33:53;100695.84;;;24.22;40.84
58471;BME280;44258;51.288;12.068;2022-08-23T12:36:29;100691.13;;;24.57;40.15
58471;BME280;44258;51.288;12.068;2022-08-23T12:39:03;100688.28;;;25.07;39.60
58471;BME280;44258;51.288;12.068;2022-08-23T12:44:20;100682.75;;;25.32;37.70
58471;BME280;44258;51.288;12.068;2022-08-23T12:46:48;100676.81;;;24.37;39.77
58471;BME280;44258;51.288;12.068;2022-08-23T12:49:23;100678.13;;;24.16;39.42
58471;BME280;44258;51.288;12.068;2022-08-23T12:51:52;100677.22;;;24.58;38.75
58471;BME280;44258;51.288;12.068;2022-08-23T12:54:22;100667.63;;;25.11;38.21
58471;BME280;44258;51.288;12.068;2022-08-23T12:56:52;100677.63;;;25.37;37.39
58471;BME280;44258;51.288;12.068;2022-08-23T12:59:35;100674.69;;;25.22;37.81
58471;BME280;44258;51.288;12.068;2022-08-23T13:02:05;100687.78;;;25.28;37.87